createdAt,value
2022-12-05T00:01:26.540Z,8.87
2022-12-05T00:03:56.129Z,8.60
2022-12-05T00:06:25.596Z,9.50
2022-12-05T00:08:54.334Z,10.50
2022-12-05T00:11:24.674Z,8.50
2022-12-05T00:13:54.545Z,7.93
2022-12-05T00:16:26.393Z,9.83
2022-12-05T00:18:55.316Z,9.47
2022-12-05T00:21:26.097Z,8.90
2022-12-05T00:23:56.536Z,10.00
2022-12-05T00:26:24.989Z,9.33
2022-12-05T00:28:53.484Z,9.47
2022-12-05T00:31:23.110Z,10.00
2022-12-05T00:33:53.087Z,9.10
2022-12-05T00:36:22.679Z,8.30
2022-12-05T00:38:50.460Z,9.33
2022-12-05T00:41:21.032Z,10.10
2022-12-05T00:43:48.723Z,9.50
2022-12-05T00:46:18.673Z,8.60
2022-12-05T00:48:47.433Z,10.03
2022-12-05T00:51:18.840Z,9.23
2022-12-05T00:53:47.200Z,9.60
2022-12-05T00:56:17.116Z,9.40
2022-12-05T00:58:45.917Z,9.60
2022-12-05T01:01:16.624Z,8.90
2022-12-05T01:03:46.167Z,10.03
2022-12-05T01:06:16.821Z,9.07
2022-12-05T01:08:46.799Z,8.13
2022-12-05T01:11:17.678Z,8.23
2022-12-05T01:13:46.549Z,9.80
2022-12-05T01:16:17.255Z,9.73
2022-12-05T01:18:45.150Z,9.03
2022-12-05T01:21:13.510Z,8.33
2022-12-05T01:23:42.553Z,8.40
2022-12-05T01:26:13.340Z,8.30
2022-12-05T01:28:41.996Z,9.37
2022-12-05T01:31:17.247Z,9.07
2022-12-05T01:33:45.058Z,9.00
2022-12-05T01:36:13.937Z,9.50
2022-12-05T01:38:44.496Z,8.63
2022-12-05T01:41:16.644Z,8.53
2022-12-05T01:43:57.199Z,9.07
2022-12-05T01:46:25.704Z,9.20
2022-12-05T01:48:59.684Z,9.03
2022-12-05T01:51:27.757Z,9.03
2022-12-05T01:53:58.289Z,8.70
2022-12-05T01:56:26.624Z,7.57
2022-12-05T01:58:55.575Z,9.80
2022-12-05T02:01:23.454Z,7.77
2022-12-05T02:03:54.923Z,8.93
2022-12-05T02:06:24.685Z,8.17
2022-12-05T02:08:54.102Z,8.50
2022-12-05T02:11:26.551Z,8.60
2022-12-05T02:14:07.383Z,8.33
2022-12-05T02:16:48.888Z,8.67
2022-12-05T02:19:44.685Z,8.53
2022-12-05T02:22:29.552Z,8.33
2022-12-05T02:25:17.393Z,9.50
2022-12-05T02:28:11.211Z,9.47
2022-12-05T02:30:44.725Z,9.07
2022-12-05T02:33:22.331Z,9.30
2022-12-05T02:35:59.680Z,8.57
2022-12-05T02:38:32.479Z,10.00
2022-12-05T02:41:10.707Z,8.60
2022-12-05T02:43:42.923Z,8.60
2022-12-05T02:46:18.815Z,10.43
2022-12-05T02:48:49.253Z,9.17
2022-12-05T02:51:23.615Z,10.33
2022-12-05T02:53:54.399Z,9.27
2022-12-05T02:56:23.612Z,9.00
2022-12-05T02:58:56.345Z,10.43
2022-12-05T03:01:31.194Z,9.10
2022-12-05T03:04:04.000Z,9.00
2022-12-05T03:06:36.656Z,8.00
2022-12-05T03:09:08.285Z,9.47
2022-12-05T03:11:41.366Z,9.20
2022-12-05T03:14:14.264Z,8.97
2022-12-05T03:16:48.517Z,9.90
2022-12-05T03:19:23.271Z,9.47
2022-12-05T03:21:58.595Z,9.33
2022-12-05T03:24:27.028Z,10.10
2022-12-05T03:27:09.545Z,9.33
2022-12-05T03:29:43.699Z,9.23
2022-12-05T03:32:22.737Z,9.50
2022-12-05T03:35:00.697Z,9.43
2022-12-05T03:37:35.132Z,10.83
2022-12-05T03:40:08.696Z,9.40
2022-12-05T03:42:43.485Z,9.30
2022-12-05T03:45:17.485Z,9.93
2022-12-05T03:47:54.483Z,9.60
2022-12-05T03:50:27.623Z,9.87
2022-12-05T03:55:59.753Z,9.93
2022-12-05T03:58:32.663Z,10.40
2022-12-05T04:01:03.172Z,9.20
2022-12-05T04:03:40.691Z,10.60
2022-12-05T04:06:18.376Z,9.30
2022-12-05T04:08:51.437Z,9.73
2022-12-05T04:11:23.142Z,9.20
2022-12-05T04:13:55.504Z,9.47
2022-12-05T04:16:43.798Z,8.70
2022-12-05T04:19:20.954Z,8.00
2022-12-05T04:21:50.535Z,8.70
2022-12-05T04:24:40.938Z,8.73
2022-12-05T04:27:22.261Z,9.50
2022-12-05T04:29:58.345Z,9.33
2022-12-05T04:32:30.930Z,9.27
2022-12-05T04:35:05.432Z,10.37
2022-12-05T04:37:37.054Z,12.00
2022-12-05T04:40:11.274Z,10.70
2022-12-05T04:42:44.254Z,10.40
2022-12-05T04:45:17.297Z,9.40
2022-12-05T04:47:49.616Z,9.80
2022-12-05T04:50:20.642Z,9.97
2022-12-05T04:52:52.870Z,9.97
2022-12-05T04:55:26.115Z,10.77
2022-12-05T04:58:06.028Z,9.73
2022-12-05T05:00:39.163Z,9.40
2022-12-05T05:03:14.309Z,10.13
2022-12-05T05:05:48.090Z,8.77
2022-12-05T05:08:21.546Z,9.83
2022-12-05T05:10:59.179Z,10.30
2022-12-05T05:13:27.401Z,9.27
2022-12-05T05:15:57.917Z,10.60
2022-12-05T05:18:26.017Z,9.93
2022-12-05T05:20:55.617Z,9.47
2022-12-05T05:23:24.093Z,9.70
2022-12-05T05:25:56.513Z,10.10
2022-12-05T05:28:25.252Z,10.30
2022-12-05T05:30:53.162Z,8.70
2022-12-05T05:33:22.060Z,9.57
2022-12-05T05:35:50.171Z,10.47
2022-12-05T05:38:19.779Z,9.53
2022-12-05T05:40:47.570Z,8.63
2022-12-05T05:43:15.868Z,10.10
2022-12-05T05:45:43.843Z,8.63
2022-12-05T05:48:11.893Z,9.33
2022-12-05T05:50:39.911Z,9.47
2022-12-05T05:53:12.440Z,9.73
2022-12-05T05:55:45.552Z,10.53
2022-12-05T05:58:13.854Z,10.53
2022-12-05T06:00:42.003Z,10.23
2022-12-05T06:03:10.518Z,10.57
2022-12-05T06:05:39.308Z,9.73
2022-12-05T06:08:07.580Z,10.07
2022-12-05T06:10:35.447Z,9.60
2022-12-05T06:13:04.671Z,9.13
2022-12-05T06:15:32.832Z,8.53
2022-12-05T06:18:01.665Z,10.37
2022-12-05T06:20:30.293Z,10.53
2022-12-05T06:22:58.099Z,9.60
2022-12-05T06:25:26.829Z,11.17
2022-12-05T06:27:55.111Z,10.23
2022-12-05T06:30:30.072Z,10.90
2022-12-05T06:32:58.979Z,10.00
2022-12-05T06:35:27.231Z,10.60
2022-12-05T06:37:55.482Z,10.83
2022-12-05T06:40:23.945Z,10.10
2022-12-05T06:42:51.677Z,11.00
2022-12-05T06:45:19.850Z,11.10
2022-12-05T06:47:49.341Z,10.90
2022-12-05T06:50:18.116Z,9.00
2022-12-05T06:52:46.233Z,10.43
2022-12-05T06:55:14.426Z,11.97
2022-12-05T06:57:42.620Z,11.97
2022-12-05T07:00:29.172Z,10.87
2022-12-05T07:02:59.177Z,9.70
2022-12-05T07:05:27.453Z,10.17
2022-12-05T07:07:59.363Z,9.43
2022-12-05T07:10:27.567Z,9.80
2022-12-05T07:12:56.225Z,9.33
2022-12-05T07:15:25.219Z,9.60
2022-12-05T07:17:53.610Z,12.18
2022-12-05T07:20:23.069Z,10.43
2022-12-05T07:22:51.415Z,10.33
2022-12-05T07:25:20.270Z,10.37
2022-12-05T07:27:48.494Z,9.67
2022-12-05T07:30:16.642Z,9.63
2022-12-05T07:32:45.143Z,10.03
2022-12-05T07:35:13.065Z,10.33
2022-12-05T07:37:43.688Z,10.97
2022-12-05T07:40:13.060Z,10.80
2022-12-05T07:42:40.787Z,10.13
2022-12-05T07:45:09.810Z,10.27
2022-12-05T07:47:38.604Z,12.90
2022-12-05T07:50:07.864Z,14.23
2022-12-05T07:52:35.966Z,11.70
2022-12-05T07:55:05.712Z,11.37
2022-12-05T07:57:34.158Z,10.37
2022-12-05T08:00:01.979Z,10.00
2022-12-05T08:02:29.784Z,9.77
2022-12-05T08:04:57.605Z,10.10
2022-12-05T08:07:25.629Z,11.50
2022-12-05T08:09:53.489Z,11.87
2022-12-05T08:12:22.907Z,12.87
2022-12-05T08:14:50.693Z,11.70
2022-12-05T08:17:18.897Z,16.60
2022-12-05T08:19:46.665Z,18.10
2022-12-05T08:22:14.713Z,15.37
2022-12-05T08:24:43.346Z,14.27
2022-12-05T08:27:11.267Z,14.63
2022-12-05T08:29:40.537Z,12.93
2022-12-05T08:32:08.333Z,11.20
2022-12-05T08:34:35.987Z,10.63
2022-12-05T08:37:04.549Z,9.40
2022-12-05T08:39:37.973Z,10.97
2022-12-05T08:42:06.694Z,9.83
2022-12-05T08:44:34.739Z,7.90
2022-12-05T08:47:03.672Z,9.03
2022-12-05T08:49:31.306Z,8.97
2022-12-05T08:51:58.962Z,9.10
2022-12-05T08:54:26.974Z,9.07
2022-12-05T08:56:54.722Z,9.60
2022-12-05T08:59:22.420Z,8.17
2022-12-05T09:01:51.514Z,7.40
2022-12-05T09:04:20.750Z,6.70
2022-12-05T09:06:49.148Z,8.77
2022-12-05T09:09:17.782Z,7.87
2022-12-05T09:11:49.117Z,7.07
2022-12-05T09:14:18.035Z,8.00
2022-12-05T09:16:47.587Z,8.87
2022-12-05T09:19:18.441Z,8.67
2022-12-05T09:21:48.103Z,8.53
2022-12-05T09:24:16.094Z,7.50
2022-12-05T09:26:43.827Z,8.07
2022-12-05T09:29:16.749Z,9.20
2022-12-05T09:31:47.400Z,7.10
2022-12-05T09:34:15.869Z,8.60
2022-12-05T09:36:45.484Z,7.67
2022-12-05T09:39:14.483Z,9.40
2022-12-05T09:42:09.288Z,7.60
2022-12-05T09:44:43.816Z,7.00
2022-12-05T09:47:22.845Z,7.57
2022-12-05T09:49:56.949Z,8.37
2022-12-05T09:52:28.026Z,6.67
2022-12-05T09:55:02.306Z,6.50
2022-12-05T09:57:36.523Z,7.37
2022-12-05T10:00:08.896Z,7.03
2022-12-05T10:02:46.737Z,6.73
2022-12-05T10:05:21.177Z,8.93
2022-12-05T10:07:57.598Z,7.27
2022-12-05T10:10:34.628Z,6.80
2022-12-05T10:13:41.649Z,7.43
2022-12-05T10:16:14.509Z,7.07
2022-12-05T10:18:46.620Z,6.30
2022-12-05T10:21:19.882Z,7.07
2022-12-05T10:23:58.528Z,7.80
2022-12-05T10:26:31.752Z,7.07
2022-12-05T10:29:07.477Z,6.80
2022-12-05T10:31:38.220Z,7.23
2022-12-05T10:34:17.699Z,7.30
2022-12-05T10:36:55.955Z,7.70
2022-12-05T10:39:24.693Z,6.73
2022-12-05T10:41:53.960Z,8.00
2022-12-05T10:44:22.016Z,6.50
2022-12-05T10:46:50.053Z,8.20
2022-12-05T10:49:19.886Z,6.50
2022-12-05T10:51:48.936Z,6.90
2022-12-05T10:54:21.261Z,6.23
2022-12-05T10:56:52.080Z,6.03
2022-12-05T10:59:22.966Z,7.50
2022-12-05T11:01:53.789Z,5.43
2022-12-05T11:04:25.464Z,6.60
2022-12-05T11:06:59.328Z,7.73
2022-12-05T11:09:29.615Z,7.50
2022-12-05T11:12:04.019Z,7.30
2022-12-05T11:14:36.099Z,7.00
2022-12-05T11:17:06.277Z,7.63
2022-12-05T11:19:35.699Z,8.67
2022-12-05T11:22:04.742Z,7.60
2022-12-05T11:24:35.352Z,6.90
2022-12-05T11:27:21.637Z,6.47
2022-12-05T11:30:01.400Z,6.97
2022-12-05T11:32:31.530Z,7.80
2022-12-05T11:35:24.168Z,5.97
2022-12-05T11:37:55.113Z,7.23
2022-12-05T11:40:37.725Z,6.97
2022-12-05T11:43:24.539Z,8.07
2022-12-05T11:46:04.148Z,7.57
2022-12-05T11:48:57.182Z,7.30
2022-12-05T11:51:38.755Z,9.03
2022-12-05T11:55:05.022Z,7.23
2022-12-05T11:58:06.348Z,7.20
2022-12-05T12:00:41.051Z,7.10
2022-12-05T12:03:34.800Z,8.93
2022-12-05T12:06:25.049Z,7.50
2022-12-05T12:09:08.891Z,7.70
2022-12-05T12:11:44.655Z,8.20
2022-12-05T12:14:20.763Z,9.00
2022-12-05T12:16:59.282Z,7.73
2022-12-05T12:19:44.138Z,7.30
2022-12-05T12:22:32.743Z,7.47
2022-12-05T12:25:15.128Z,7.13
2022-12-05T12:27:54.234Z,7.47
2022-12-05T12:30:29.180Z,8.50
2022-12-05T12:33:06.561Z,7.50
2022-12-05T12:35:43.310Z,8.43
2022-12-05T12:38:35.714Z,7.63
2022-12-05T12:41:12.375Z,7.23
2022-12-05T12:43:54.142Z,6.63
2022-12-05T12:46:44.134Z,10.43
2022-12-05T12:49:41.100Z,8.23
2022-12-05T12:52:16.377Z,9.20
2022-12-05T12:55:05.201Z,7.00
2022-12-05T12:57:47.087Z,7.97
2022-12-05T13:00:24.534Z,8.20
2022-12-05T13:02:56.037Z,7.70
2022-12-05T13:05:36.058Z,8.23
2022-12-05T13:08:08.363Z,8.17
2022-12-05T13:10:40.947Z,8.60
2022-12-05T13:13:15.223Z,8.07
2022-12-05T13:15:47.846Z,9.30
2022-12-05T13:18:18.932Z,8.00
2022-12-05T13:20:48.953Z,8.43
2022-12-05T13:23:20.496Z,8.30
2022-12-05T13:25:50.825Z,7.20
2022-12-05T13:28:31.341Z,7.50
2022-12-05T13:31:03.525Z,7.70
2022-12-05T13:33:34.523Z,5.00
2022-12-05T13:36:27.698Z,6.57
2022-12-05T13:39:18.324Z,5.83
2022-12-05T13:42:06.185Z,5.37
2022-12-05T13:44:39.457Z,4.37
2022-12-05T13:47:10.493Z,4.13
2022-12-05T13:49:48.791Z,3.30
2022-12-05T13:52:23.097Z,3.37
2022-12-05T13:55:01.631Z,2.90
2022-12-05T13:57:54.681Z,2.40
2022-12-05T14:00:33.881Z,2.60
2022-12-05T14:03:07.990Z,2.30
2022-12-05T14:05:44.644Z,2.23
2022-12-05T14:08:57.894Z,2.27
2022-12-05T14:11:27.243Z,1.87
2022-12-05T14:14:00.743Z,2.00
2022-12-05T14:16:48.181Z,1.93
2022-12-05T14:19:50.988Z,2.37
2022-12-05T14:22:54.437Z,2.00
2022-12-05T14:25:46.532Z,2.53
2022-12-05T14:28:40.201Z,1.97
2022-12-05T14:31:24.925Z,2.50
2022-12-05T14:34:06.869Z,2.87
2022-12-05T14:36:35.010Z,2.23
2022-12-05T14:39:22.432Z,2.80
2022-12-05T14:41:57.854Z,2.30
2022-12-05T14:44:32.306Z,2.80
2022-12-05T14:47:03.668Z,2.70
2022-12-05T14:49:54.241Z,2.60
2022-12-05T14:52:24.974Z,2.50
2022-12-05T14:54:55.028Z,2.50
2022-12-05T14:57:23.534Z,3.13
2022-12-05T14:59:58.002Z,2.40
2022-12-05T15:02:28.809Z,3.57
2022-12-05T15:05:04.421Z,2.80
2022-12-05T15:07:35.050Z,2.27
2022-12-05T15:10:05.968Z,2.97
2022-12-05T15:12:40.741Z,3.33
2022-12-05T15:15:17.357Z,2.30
2022-12-05T15:17:50.470Z,2.23
2022-12-05T15:20:40.115Z,2.40
2022-12-05T15:23:42.941Z,2.50
2022-12-05T15:29:10.931Z,2.30
2022-12-05T15:31:47.039Z,2.70
2022-12-05T15:34:19.001Z,2.80
2022-12-05T15:36:51.803Z,3.53
2022-12-05T15:39:25.727Z,3.47
2022-12-05T15:41:54.513Z,3.93
2022-12-05T15:44:27.256Z,4.07
2022-12-05T15:46:58.769Z,3.83
2022-12-05T15:49:28.667Z,5.63
2022-12-05T15:52:15.928Z,5.30
2022-12-05T15:54:44.800Z,7.53
2022-12-05T15:57:20.347Z,6.93
2022-12-05T15:59:53.172Z,6.70
2022-12-05T16:02:27.387Z,7.50
2022-12-05T16:04:57.632Z,7.70
2022-12-05T16:07:29.892Z,7.50
2022-12-05T16:10:00.780Z,7.70
2022-12-05T16:12:35.571Z,9.20
2022-12-05T16:15:09.347Z,9.07
2022-12-05T16:17:46.179Z,7.00
2022-12-05T16:20:23.913Z,7.00
2022-12-05T16:22:54.668Z,8.27
2022-12-05T16:25:26.533Z,8.60
2022-12-05T16:27:58.497Z,8.00
2022-12-05T16:30:27.288Z,7.73
2022-12-05T16:33:05.208Z,8.30
2022-12-05T16:35:40.292Z,8.30
2022-12-05T16:38:13.001Z,7.43
2022-12-05T16:40:43.438Z,8.03
2022-12-05T16:43:20.447Z,8.00
2022-12-05T16:45:49.853Z,8.60
2022-12-05T16:48:22.303Z,9.33
2022-12-05T16:50:52.209Z,8.97
2022-12-05T16:53:28.036Z,8.47
2022-12-05T16:55:59.125Z,9.17
2022-12-05T16:58:30.185Z,9.57
2022-12-05T17:01:03.782Z,9.03
2022-12-05T17:03:36.036Z,8.40
2022-12-05T17:06:05.365Z,8.83
2022-12-05T17:08:33.179Z,8.63
2022-12-05T17:11:02.194Z,10.20
2022-12-05T17:13:32.008Z,8.60
2022-12-05T17:16:00.416Z,9.90
2022-12-05T17:18:31.900Z,8.17
2022-12-05T17:21:03.356Z,7.50
2022-12-05T17:23:31.562Z,7.43
2022-12-05T17:26:00.472Z,8.13
2022-12-05T17:28:29.447Z,9.93
2022-12-05T17:30:57.243Z,11.67
2022-12-05T17:33:25.924Z,12.53
2022-12-05T17:35:54.289Z,11.70
2022-12-05T17:38:23.429Z,12.00
2022-12-05T17:40:51.764Z,11.10
2022-12-05T17:43:25.308Z,11.07
2022-12-05T17:45:54.709Z,10.33
2022-12-05T17:48:23.445Z,10.93
2022-12-05T17:50:51.335Z,9.60
2022-12-05T17:53:21.513Z,10.20
2022-12-05T17:55:51.741Z,10.70
2022-12-05T17:58:19.646Z,11.50
2022-12-05T18:00:48.334Z,9.87
2022-12-05T18:03:18.603Z,10.30
2022-12-05T18:05:47.451Z,11.07
2022-12-05T18:08:16.922Z,10.80
2022-12-05T18:10:46.191Z,10.03
2022-12-05T18:13:16.133Z,9.30
2022-12-05T18:15:44.387Z,9.60
2022-12-05T18:18:15.757Z,9.97
2022-12-05T18:20:44.383Z,10.70
2022-12-05T18:23:12.807Z,9.13
2022-12-05T18:25:41.917Z,10.77
2022-12-05T18:28:09.974Z,11.10
2022-12-05T18:30:39.709Z,12.90
2022-12-05T18:33:07.568Z,10.97
2022-12-05T18:35:42.396Z,11.53
2022-12-05T18:38:11.686Z,11.73
2022-12-05T18:40:39.474Z,12.17
2022-12-05T18:43:07.699Z,11.90
2022-12-05T18:45:35.383Z,12.93
2022-12-05T18:48:23.205Z,10.40
2022-12-05T18:50:53.512Z,10.83
2022-12-05T18:53:21.189Z,11.50
2022-12-05T18:56:21.452Z,10.23
2022-12-05T18:58:39.283Z,9.07
2022-12-05T19:01:09.390Z,9.53
2022-12-05T19:03:39.773Z,9.20
2022-12-05T19:06:15.790Z,8.77
2022-12-05T19:08:45.616Z,9.40
2022-12-05T19:11:14.038Z,9.20
2022-12-05T19:13:42.069Z,10.53
2022-12-05T19:16:14.297Z,8.27
2022-12-05T19:18:43.443Z,8.50
2022-12-05T19:21:13.731Z,8.20
2022-12-05T19:23:41.819Z,8.57
2022-12-05T19:26:11.411Z,9.27
2022-12-05T19:28:40.604Z,10.40
2022-12-05T19:31:10.166Z,10.73
2022-12-05T19:33:40.656Z,9.77
2022-12-05T19:36:13.022Z,8.97
2022-12-05T19:38:43.625Z,9.53
2022-12-05T19:41:13.517Z,9.40
2022-12-05T19:43:43.316Z,10.90
2022-12-05T19:46:13.724Z,10.70
2022-12-05T19:48:42.301Z,8.60
2022-12-05T19:51:11.681Z,10.17
2022-12-05T19:53:42.033Z,9.33
2022-12-05T19:56:13.776Z,9.07
2022-12-05T19:58:41.930Z,8.60
2022-12-05T20:01:11.422Z,10.20
2022-12-05T20:03:41.128Z,9.50
2022-12-05T20:06:12.237Z,10.10
2022-12-05T20:08:41.415Z,9.13
2022-12-05T20:11:12.166Z,8.57
2022-12-05T20:13:47.103Z,8.10
2022-12-05T20:16:18.663Z,9.33
2022-12-05T20:18:47.422Z,9.93
2022-12-05T20:21:18.682Z,10.60
2022-12-05T20:23:46.920Z,10.60
2022-12-05T20:26:16.688Z,10.33
2022-12-05T20:28:44.928Z,11.10
2022-12-05T20:31:15.596Z,10.70
2022-12-05T20:33:44.435Z,11.03
2022-12-05T20:36:14.260Z,11.27
2022-12-05T20:38:43.853Z,11.40
2022-12-05T20:41:15.342Z,10.83
2022-12-05T20:43:44.993Z,11.47
2022-12-05T20:46:16.093Z,10.40
2022-12-05T20:48:44.627Z,10.47
2022-12-05T20:51:14.358Z,11.30
2022-12-05T20:53:45.190Z,10.33
2022-12-05T20:56:14.583Z,9.43
2022-12-05T20:58:45.866Z,10.83
2022-12-05T21:01:14.537Z,11.00
2022-12-05T21:03:44.939Z,10.37
2022-12-05T21:06:15.398Z,9.90
2022-12-05T21:08:45.160Z,11.40
2022-12-05T21:11:14.008Z,10.97
2022-12-05T21:13:42.333Z,10.20
2022-12-05T21:16:12.616Z,11.20
2022-12-05T21:18:41.859Z,10.20
2022-12-05T21:21:14.580Z,10.03
2022-12-05T21:23:45.121Z,9.43
2022-12-05T21:26:15.453Z,10.27
2022-12-05T21:28:45.279Z,10.67
2022-12-05T21:31:15.236Z,11.77
2022-12-05T21:33:47.616Z,10.27
2022-12-05T21:36:15.829Z,10.80
2022-12-05T21:38:46.632Z,10.47
2022-12-05T21:41:17.747Z,9.43
2022-12-05T21:43:49.576Z,11.07
2022-12-05T21:46:20.627Z,12.80
2022-12-05T21:48:49.037Z,12.07
2022-12-05T21:51:17.406Z,11.90
2022-12-05T21:53:46.481Z,11.17
2022-12-05T21:56:16.484Z,12.60
2022-12-05T21:58:45.660Z,11.43
2022-12-05T22:01:18.565Z,9.27
2022-12-05T22:03:47.209Z,10.43
2022-12-05T22:06:15.644Z,12.03
2022-12-05T22:08:44.497Z,11.67
2022-12-05T22:11:16.150Z,11.50
2022-12-05T22:13:45.823Z,12.33
2022-12-05T22:16:14.404Z,11.23
2022-12-05T22:18:42.816Z,12.30
2022-12-05T22:21:13.674Z,11.43
2022-12-05T22:23:42.835Z,10.90
2022-12-05T22:26:14.161Z,11.23
2022-12-05T22:28:42.030Z,11.53
2022-12-05T22:31:14.027Z,11.33
2022-12-05T22:33:42.269Z,10.80
2022-12-05T22:36:12.546Z,10.87
2022-12-05T22:38:43.191Z,10.30
2022-12-05T22:41:15.945Z,12.23
2022-12-05T22:43:45.835Z,10.47
2022-12-05T22:46:17.822Z,11.33
2022-12-05T22:48:46.129Z,10.80
2022-12-05T22:51:15.246Z,11.10
2022-12-05T22:53:44.897Z,9.50
2022-12-05T22:56:15.911Z,10.70
2022-12-05T22:58:44.801Z,10.97
2022-12-05T23:01:14.292Z,10.53
2022-12-05T23:03:43.814Z,10.70
2022-12-05T23:06:13.123Z,10.70
2022-12-05T23:08:42.487Z,10.67
2022-12-05T23:11:11.546Z,9.83
2022-12-05T23:13:41.119Z,10.30
2022-12-05T23:16:10.639Z,10.50
2022-12-05T23:18:47.589Z,9.70
2022-12-05T23:21:18.493Z,9.80
2022-12-05T23:23:47.065Z,10.80
2022-12-05T23:26:15.985Z,10.33
2022-12-05T23:28:45.761Z,10.63
2022-12-05T23:31:14.472Z,11.43
2022-12-05T23:33:43.341Z,11.40
2022-12-05T23:36:11.944Z,11.50
2022-12-05T23:38:41.691Z,10.63
2022-12-05T23:41:13.437Z,11.17
2022-12-05T23:43:43.009Z,10.07
2022-12-05T23:46:14.501Z,11.07
2022-12-05T23:48:44.205Z,10.70
2022-12-05T23:51:14.831Z,10.53
2022-12-05T23:53:45.560Z,11.77
2022-12-05T23:56:15.854Z,13.30
2022-12-05T23:58:44.422Z,11.47
